Time,TemperatureF,DewpointF,PressureIn,WindDirection,WindDirectionDegrees,WindSpeedMPH,WindSpeedGustMPH,Humidity,HourlyPrecipIn,Conditions,Clouds,dailyrainin,SoftwareType,DateUTC
2013-03-05 00:06:00,53.9,47.0,29.76,ESE,123,0.0,-999.0,78,-99.99,,,0.00,weatherlink.com 1.10,2013-03-05 06:06:00,
2013-03-05 00:21:00,53.0,46.0,29.76,ESE,123,0.0,-999.0,78,-99.99,,,0.00,weatherlink.com 1.10,2013-03-05 06:21:00,
2013-03-05 00:36:00,51.9,45.0,29.77,ESE,121,0.0,-999.0,77,-99.99,,,0.00,weatherlink.com 1.10,2013-03-05 06:36:00,
2013-03-05 00:51:00,51.8,45.0,29.78,ESE,121,0.0,-999.0,77,-99.99,,,0.00,weatherlink.com 1.10,2013-03-05 06:51:00,
2013-03-05 01:06:00,52.4,45.0,29.79,ESE,118,0.0,-999.0,77,-99.99,,,0.00,weatherlink.com 1.10,2013-03-05 07:06:00,
2013-03-05 01:21:00,53.1,46.0,29.81,ESE,114,0.0,-999.0,77,-99.99,,,0.00,weatherlink.com 1.10,2013-03-05 07:21:00,
2013-03-05 01:36:00,52.7,46.0,29.82,WSW,243,0.0,-999.0,78,-99.99,,,0.00,weatherlink.com 1.10,2013-03-05 07:36:00,
2013-03-05 01:51:00,51.8,44.0,29.82,WNW,286,0.0,-999.0,76,-99.99,,,0.00,weatherlink.com 1.10,2013-03-05 07:51:00,
2013-03-05 02:06:00,50.9,44.0,29.79,WNW,284,0.0,-999.0,77,-99.99,,,0.00,weatherlink.com 1.10,2013-03-05 08:06:00,
2013-03-05 02:33:00,48.1,39.0,29.78,NW,313,0.0,-999.0,70,-99.99,,,0.00,weatherlink.com 1.10,2013-03-05 08:33:00,
2013-03-05 02:51:00,47.2,37.0,29.80,NW,306,0.0,-999.0,69,-99.99,,,0.00,weatherlink.com 1.10,2013-03-05 08:51:00,
2013-03-05 03:06:00,46.5,38.0,29.82,West,280,0.0,-999.0,71,-99.99,,,0.00,weatherlink.com 1.10,2013-03-05 09:06:00,
2013-03-05 03:21:00,45.6,39.0,29.83,WNW,298,0.0,-999.0,77,-99.99,,,0.00,weatherlink.com 1.10,2013-03-05 09:21:00,
2013-03-05 03:36:00,44.2,38.0,29.84,WNW,284,0.0,-999.0,79,-99.99,,,0.00,weatherlink.com 1.10,2013-03-05 09:36:00,
2013-03-05 03:51:00,42.6,37.0,29.84,NW,308,0.0,-999.0,79,-99.99,,,0.00,weatherlink.com 1.10,2013-03-05 09:51:00,
2013-03-05 04:06:00,41.3,35.0,29.87,NW,308,0.0,-999.0,79,-99.99,,,0.00,weatherlink.com 1.10,2013-03-05 10:06:00,
2013-03-05 04:21:00,40.7,34.0,29.92,WNW,296,0.0,-999.0,78,-99.99,,,0.00,weatherlink.com 1.10,2013-03-05 10:21:00,
2013-03-05 04:36:00,38.9,32.0,29.89,NW,325,0.0,-999.0,76,-99.99,,,0.00,weatherlink.com 1.10,2013-03-05 10:36:00,
2013-03-05 04:51:00,38.1,31.0,29.91,WNW,290,0.0,-999.0,75,-99.99,,,0.01,weatherlink.com 1.10,2013-03-05 10:51:00,
2013-03-05 05:06:00,38.0,32.0,29.92,WNW,282,0.0,-999.0,78,-99.99,,,0.01,weatherlink.com 1.10,2013-03-05 11:06:00,
2013-03-05 05:21:00,37.9,32.0,29.94,NW,312,0.0,-999.0,79,-99.99,,,0.01,weatherlink.com 1.10,2013-03-05 11:21:00,
2013-03-05 05:36:00,38.0,32.0,29.95,NNW,342,0.0,-999.0,79,-99.99,,,0.01,weatherlink.com 1.10,2013-03-05 11:36:00,
2013-03-05 05:51:00,38.0,32.0,29.95,NNW,333,0.0,-999.0,80,-99.99,,,0.01,weatherlink.com 1.10,2013-03-05 11:51:00,
2013-03-05 06:06:00,37.8,32.0,29.95,WNW,298,0.0,-999.0,79,-99.99,,,0.01,weatherlink.com 1.10,2013-03-05 12:06:00,
2013-03-05 06:21:00,37.5,32.0,29.95,WNW,302,0.0,-999.0,79,-99.99,,,0.01,weatherlink.com 1.10,2013-03-05 12:21:00,
2013-03-05 06:36:00,37.3,31.0,29.97,WNW,303,0.0,-999.0,79,-99.99,,,0.01,weatherlink.com 1.10,2013-03-05 12:36:00,
2013-03-05 06:51:00,37.0,31.0,29.97,NW,305,0.0,-999.0,78,-99.99,,,0.01,weatherlink.com 1.10,2013-03-05 12:51:00,
2013-03-05 07:06:00,37.1,31.0,30.01,WNW,294,0.0,-999.0,80,-99.99,,,0.01,weatherlink.com 1.10,2013-03-05 13:06:00,
2013-03-05 07:21:00,37.2,32.0,30.02,NW,326,0.0,-999.0,80,-99.99,,,0.01,weatherlink.com 1.10,2013-03-05 13:21:00,
2013-03-05 07:36:00,37.1,31.0,30.03,NW,313,0.0,-999.0,80,-99.99,,,0.01,weatherlink.com 1.10,2013-03-05 13:36:00,
2013-03-05 07:51:00,37.1,31.0,30.04,NW,306,0.0,-999.0,80,-99.99,,,0.01,weatherlink.com 1.10,2013-03-05 13:51:00,
2013-03-05 08:06:00,37.0,31.0,30.05,WNW,298,0.0,-999.0,80,-99.99,,,0.01,weatherlink.com 1.10,2013-03-05 14:06:00,
2013-03-05 08:21:00,36.7,31.0,30.05,NW,319,0.0,-999.0,80,-99.99,,,0.01,weatherlink.com 1.10,2013-03-05 14:21:00,
2013-03-05 08:36:00,36.7,31.0,30.07,NW,315,0.0,-999.0,80,-99.99,,,0.01,weatherlink.com 1.10,2013-03-05 14:36:00,
2013-03-05 08:51:00,36.7,31.0,30.07,NW,304,0.0,-999.0,79,-99.99,,,0.01,weatherlink.com 1.10,2013-03-05 14:51:00,
2013-03-05 09:06:00,36.4,30.0,30.08,NW,326,0.0,-999.0,77,-99.99,,,0.01,weatherlink.com 1.10,2013-03-05 15:06:00,
2013-03-05 09:21:00,36.8,30.0,30.09,WNW,284,0.0,-999.0,76,-99.99,,,0.01,weatherlink.com 1.10,2013-03-05 15:21:00,
2013-03-05 09:36:00,38.0,31.0,30.10,NW,313,8.0,-999.0,75,-99.99,,,0.01,weatherlink.com 1.10,2013-03-05 15:36:00,
2013-03-05 09:51:00,38.7,30.0,30.10,NW,308,0.0,-999.0,72,-99.99,,,0.01,weatherlink.com 1.10,2013-03-05 15:51:00,
2013-03-05 10:06:00,39.2,30.0,30.11,NW,315,0.0,-999.0,70,-99.99,,,0.01,weatherlink.com 1.10,2013-03-05 16:06:00,
2013-03-05 10:21:00,39.5,30.0,30.10,WNW,298,0.0,-999.0,69,-99.99,,,0.01,weatherlink.com 1.10,2013-03-05 16:21:00,
2013-03-05 10:36:00,40.4,30.0,30.11,WNW,302,0.0,-999.0,67,-99.99,,,0.01,weatherlink.com 1.10,2013-03-05 16:36:00,
2013-03-05 10:51:00,40.7,30.0,30.11,NW,323,0.0,-999.0,65,-99.99,,,0.01,weatherlink.com 1.10,2013-03-05 16:51:00,
2013-03-05 11:06:00,41.1,30.0,30.10,WNW,296,7.0,-999.0,64,-99.99,,,0.01,weatherlink.com 1.10,2013-03-05 17:06:00,
2013-03-05 11:21:00,41.0,27.0,30.10,WSW,257,11.0,-999.0,58,-99.99,,,0.01,weatherlink.com 1.10,2013-03-05 17:21:00,
2013-03-05 11:36:00,41.3,26.0,30.10,NW,325,0.0,-999.0,55,-99.99,,,0.01,weatherlink.com 1.10,2013-03-05 17:36:00,
2013-03-05 11:51:00,41.5,23.0,30.11,NW,312,0.0,-999.0,49,-99.99,,,0.01,weatherlink.com 1.10,2013-03-05 17:51:00,
2013-03-05 12:06:00,40.9,21.0,30.11,NW,304,0.0,-999.0,45,-99.99,,,0.01,weatherlink.com 1.10,2013-03-05 18:06:00,
2013-03-05 12:21:00,40.9,20.0,30.11,WNW,303,30.0,-999.0,44,-99.99,,,0.01,weatherlink.com 1.10,2013-03-05 18:21:00,
2013-03-05 12:36:00,41.4,20.0,30.12,West,274,6.0,-999.0,43,-99.99,,,0.01,weatherlink.com 1.10,2013-03-05 18:36:00,
2013-03-05 12:51:00,41.6,19.0,30.12,SW,224,9.0,-999.0,41,-99.99,,,0.01,weatherlink.com 1.10,2013-03-05 18:51:00,
2013-03-05 13:06:00,41.5,19.0,30.12,West,281,8.0,-999.0,40,-99.99,,,0.01,weatherlink.com 1.10,2013-03-05 19:06:00,
2013-03-05 13:21:00,42.3,19.0,30.12,WNW,298,0.0,-999.0,40,-99.99,,,0.01,weatherlink.com 1.10,2013-03-05 19:21:00,
2013-03-05 13:36:00,42.5,19.0,30.12,West,267,4.0,-999.0,39,-99.99,,,0.01,weatherlink.com 1.10,2013-03-05 19:36:00,
2013-03-05 13:51:00,42.4,19.0,30.13,NW,317,18.0,-999.0,39,-99.99,,,0.01,weatherlink.com 1.10,2013-03-05 19:51:00,
2013-03-05 14:06:00,42.6,18.0,30.13,NW,307,8.0,-999.0,38,-99.99,,,0.01,weatherlink.com 1.10,2013-03-05 20:06:00,
2013-03-05 14:21:00,43.4,20.0,30.14,West,273,8.0,-999.0,39,-99.99,,,0.01,weatherlink.com 1.10,2013-03-05 20:21:00,
2013-03-05 14:36:00,43.2,19.0,30.14,WNW,294,8.0,-999.0,38,-99.99,,,0.01,weatherlink.com 1.10,2013-03-05 20:36:00,
2013-03-05 14:51:00,43.6,19.0,30.14,NW,309,8.0,-999.0,37,-99.99,,,0.01,weatherlink.com 1.10,2013-03-05 20:51:00,
2013-03-05 15:06:00,43.2,18.0,30.15,WNW,303,1.0,-999.0,37,-99.99,,,0.01,weatherlink.com 1.10,2013-03-05 21:06:00,
2013-03-05 15:21:00,43.5,20.0,30.15,WNW,293,8.0,-999.0,39,-99.99,,,0.01,weatherlink.com 1.10,2013-03-05 21:21:00,
2013-03-05 15:36:00,43.6,19.0,30.14,WSW,250,15.0,-999.0,38,-99.99,,,0.01,weatherlink.com 1.10,2013-03-05 21:36:00,
2013-03-05 15:51:00,43.5,20.0,30.15,NW,311,8.0,-999.0,39,-99.99,,,0.01,weatherlink.com 1.10,2013-03-05 21:51:00,
2013-03-05 16:06:00,43.6,19.0,30.15,WNW,293,2.0,-999.0,37,-99.99,,,0.01,weatherlink.com 1.10,2013-03-05 22:06:00,
2013-03-05 16:21:00,43.8,20.0,30.16,WNW,289,0.0,-999.0,38,-99.99,,,0.01,weatherlink.com 1.10,2013-03-05 22:21:00,
2013-03-05 16:36:00,43.6,19.0,30.16,NNW,328,11.0,-999.0,38,-99.99,,,0.01,weatherlink.com 1.10,2013-03-05 22:36:00,
2013-03-05 16:51:00,43.5,19.0,30.16,WNW,302,9.0,-999.0,38,-99.99,,,0.01,weatherlink.com 1.10,2013-03-05 22:51:00,
2013-03-05 17:06:00,43.1,20.0,30.17,NW,317,4.0,-999.0,39,-99.99,,,0.01,weatherlink.com 1.10,2013-03-05 23:06:00,
2013-03-05 17:21:00,42.7,19.0,30.17,WNW,294,0.0,-999.0,39,-99.99,,,0.01,weatherlink.com 1.10,2013-03-05 23:21:00,
2013-03-05 17:36:00,42.2,19.0,30.17,WSW,252,0.0,-999.0,39,-99.99,,,0.01,weatherlink.com 1.10,2013-03-05 23:36:00,
2013-03-05 17:51:00,41.8,20.0,30.18,WNW,296,14.0,-999.0,42,-99.99,,,0.01,weatherlink.com 1.10,2013-03-05 23:51:00,
2013-03-05 18:06:00,41.0,20.0,30.18,West,278,1.0,-999.0,44,-99.99,,,0.01,weatherlink.com 1.10,2013-03-06 00:06:00,
2013-03-05 18:21:00,40.4,21.0,30.18,WNW,298,1.0,-999.0,46,-99.99,,,0.01,weatherlink.com 1.10,2013-03-06 00:21:00,
2013-03-05 18:36:00,40.0,21.0,30.18,WNW,283,8.0,-999.0,47,-99.99,,,0.01,weatherlink.com 1.10,2013-03-06 00:36:00,
2013-03-05 18:51:00,39.8,21.0,30.19,WNW,295,1.0,-999.0,48,-99.99,,,0.01,weatherlink.com 1.10,2013-03-06 00:51:00,
2013-03-05 19:06:00,39.4,21.0,30.19,WNW,289,11.0,-999.0,48,-99.99,,,0.01,weatherlink.com 1.10,2013-03-06 01:06:00,
2013-03-05 19:21:00,39.0,21.0,30.20,WNW,301,11.0,-999.0,49,-99.99,,,0.01,weatherlink.com 1.10,2013-03-06 01:21:00,
2013-03-05 19:36:00,38.9,22.0,30.20,NW,304,14.0,-999.0,50,-99.99,,,0.01,weatherlink.com 1.10,2013-03-06 01:36:00,
2013-03-05 19:51:00,38.5,21.0,30.20,WNW,284,15.0,-999.0,50,-99.99,,,0.01,weatherlink.com 1.10,2013-03-06 01:51:00,
2013-03-05 20:06:00,38.1,21.0,30.21,WNW,288,7.0,-999.0,51,-99.99,,,0.01,weatherlink.com 1.10,2013-03-06 02:06:00,
2013-03-05 20:21:00,37.7,22.0,30.21,West,279,7.0,-999.0,53,-99.99,,,0.01,weatherlink.com 1.10,2013-03-06 02:21:00,
2013-03-05 20:36:00,37.5,22.0,30.22,WNW,294,6.0,-999.0,53,-99.99,,,0.01,weatherlink.com 1.10,2013-03-06 02:36:00,
2013-03-05 20:51:00,37.4,22.0,30.23,WNW,300,13.0,-999.0,53,-99.99,,,0.01,weatherlink.com 1.10,2013-03-06 02:51:00,
2013-03-05 21:06:00,37.1,22.0,30.24,NW,319,27.0,-999.0,54,-99.99,,,0.01,weatherlink.com 1.10,2013-03-06 03:06:00,
2013-03-05 21:21:00,37.0,22.0,30.25,NW,317,7.0,-999.0,55,-99.99,,,0.01,weatherlink.com 1.10,2013-03-06 03:21:00,
2013-03-05 21:36:00,37.0,22.0,30.25,NW,315,10.0,-999.0,55,-99.99,,,0.01,weatherlink.com 1.10,2013-03-06 03:36:00,
2013-03-05 21:51:00,36.6,22.0,30.26,West,273,18.0,-999.0,57,-99.99,,,0.01,weatherlink.com 1.10,2013-03-06 03:51:00,
2013-03-05 22:06:00,36.3,22.0,30.27,NW,309,7.0,-999.0,57,-99.99,,,0.01,weatherlink.com 1.10,2013-03-06 04:06:00,
2013-03-05 22:21:00,36.2,23.0,30.27,NW,319,9.0,-999.0,58,-99.99,,,0.01,weatherlink.com 1.10,2013-03-06 04:21:00,
2013-03-05 22:36:00,36.0,23.0,30.28,NW,318,9.0,-999.0,59,-99.99,,,0.01,weatherlink.com 1.10,2013-03-06 04:36:00,
2013-03-05 22:51:00,35.7,23.0,30.27,NW,306,16.0,-999.0,60,-99.99,,,0.01,weatherlink.com 1.10,2013-03-06 04:51:00,
2013-03-05 23:06:00,35.3,23.0,30.27,NW,315,10.0,-999.0,61,-99.99,,,0.01,weatherlink.com 1.10,2013-03-06 05:06:00,
2013-03-05 23:21:00,34.8,23.0,30.27,NW,325,9.0,-999.0,63,-99.99,,,0.01,weatherlink.com 1.10,2013-03-06 05:21:00,
2013-03-05 23:36:00,34.2,23.0,30.27,NW,311,7.0,-999.0,64,-99.99,,,0.01,weatherlink.com 1.10,2013-03-06 05:36:00,
2013-03-05 23:51:00,34.1,23.0,30.27,NW,314,8.0,-999.0,65,-99.99,,,0.01,weatherlink.com 1.10,2013-03-06 05:51:00,